ADDS METAR Data INFO
IDs: Format: Raw Decoded Include TAF

Data at: 0849 UTC 27 Jul 2017

METAR for:KHLX (Hillsville/Twin Cnty, VA, US)
Text:KHLX 270835Z AUTO 00000KT 7SM CLR 20/18 A3014 RMK AO2 T01980175
Temperature: 19.8°C ( 68°F)
Dewpoint: 17.5°C ( 64°F) [RH = 87%]
Pressure (altimeter):30.14 inches Hg (1020.7 mb)
Winds:calm
Visibility: 7 sm ( 11 km)
Ceiling:at least 12,000 feet AGL
Clouds:sky clear below 12,000 feet AGL
QC Flag:automated observation with no human augmentation